Time;durP1;ratioP1;P1;durP2;ratioP2;P2;SDS_P1;SDS_P2;PMS_P1;PMS_P2;Temp;Humidity;BMP_temperature;BMP_pressure;BME280_temperature;BME280_humidity;BME280_pressure;Samples;Min_cycle;Max_cycle;Signal;HPM_P1;HPM_P2
2023/03/24 00:04:30;;;;;;;5.53;2.20;;;12.90;99.90;;;;;;10517030;28;20034;-63
2023/03/24 00:09:31;;;;;;;8.35;2.13;;;12.80;99.90;;;;;;10521733;28;20012;-63
2023/03/24 00:14:31;;;;;;;4.63;2.40;;;12.80;99.90;;;;;;10519060;28;20024;-63
2023/03/24 00:19:32;;;;;;;7.82;2.65;;;12.80;99.90;;;;;;10520817;28;20012;-64
2023/03/24 00:24:34;;;;;;;5.28;2.20;;;12.80;99.90;;;;;;10523497;28;20111;-62
2023/03/24 00:29:35;;;;;;;5.80;2.50;;;12.80;99.90;;;;;;10519715;28;20375;-64
2023/03/24 00:34:37;;;;;;;3.55;2.33;;;12.80;99.90;;;;;;10522092;28;20017;-63
2023/03/24 00:39:40;;;;;;;3.45;2.08;;;12.80;99.90;;;;;;10521029;28;20051;-64
2023/03/24 00:44:43;;;;;;;4.05;2.28;;;12.80;99.90;;;;;;10520114;28;20043;-63
2023/03/24 00:49:44;;;;;;;4.32;1.85;;;12.80;99.90;;;;;;10515321;28;20013;-64
2023/03/24 00:54:48;;;;;;;6.03;2.10;;;12.80;99.90;;;;;;10520365;28;20020;-63
2023/03/24 00:59:50;;;;;;;3.60;2.00;;;12.80;99.90;;;;;;10533947;28;20031;-63
2023/03/24 01:04:56;;;;;;;6.43;2.45;;;12.80;99.90;;;;;;10531462;28;20870;-64
2023/03/24 01:09:57;;;;;;;3.53;2.00;;;12.80;99.90;;;;;;10527972;28;20024;-63
2023/03/24 01:15:00;;;;;;;4.50;2.08;;;12.80;99.90;;;;;;10532787;28;20028;-63
2023/03/24 01:20:06;;;;;;;6.90;2.25;;;12.70;99.90;;;;;;10529930;28;20099;-64
2023/03/24 01:25:08;;;;;;;3.40;2.10;;;12.70;99.90;;;;;;10530751;28;20050;-63
2023/03/24 01:30:18;;;;;;;3.83;2.10;;;12.70;99.90;;;;;;10533749;28;20032;-63
2023/03/24 01:35:20;;;;;;;4.55;2.30;;;12.90;99.90;;;;;;10535289;28;20081;-64
2023/03/24 01:40:26;;;;;;;6.50;2.88;;;12.70;99.90;;;;;;10528507;28;20488;-63
2023/03/24 01:45:39;;;;;;;4.63;2.20;;;12.70;99.90;;;;;;10531432;28;20066;-65
2023/03/24 01:50:43;;;;;;;6.82;2.00;;;12.70;99.90;;;;;;10531361;28;20062;-64
2023/03/24 01:55:46;;;;;;;3.63;1.83;;;12.80;99.90;;;;;;10530431;28;20454;-63
2023/03/24 02:00:48;;;;;;;3.67;1.75;;;12.70;99.90;;;;;;10525972;28;20524;-64
2023/03/24 02:05:51;;;;;;;5.53;2.17;;;12.70;99.90;;;;;;10521325;28;20315;-64
2023/03/24 02:10:54;;;;;;;2.78;1.95;;;12.70;99.90;;;;;;10521530;28;20204;-64
2023/03/24 02:16:13;;;;;;;3.42;1.98;;;12.70;99.90;;;;;;10523317;28;21009;-63
2023/03/24 02:21:23;;;;;;;4.07;2.05;;;12.70;99.90;;;;;;10517735;28;20031;-64
2023/03/24 02:26:54;;;;;;;3.80;2.20;;;12.70;99.90;;;;;;10526223;28;20020;-64
2023/03/24 02:32:29;;;;;;;3.35;1.73;;;12.70;99.90;;;;;;10518651;28;20104;-63
2023/03/24 02:37:58;;;;;;;3.90;1.92;;;12.70;99.90;;;;;;10520797;28;20051;-64
2023/03/24 02:43:28;;;;;;;4.10;2.10;;;12.70;99.90;;;;;;10523206;28;20035;-63
2023/03/24 02:48:39;;;;;;;4.00;2.15;;;12.70;99.90;;;;;;10518542;28;20477;-64
2023/03/24 02:54:02;;;;;;;4.70;1.90;;;12.70;99.90;;;;;;10522046;28;20020;-63
2023/03/24 02:59:06;;;;;;;2.85;1.80;;;12.70;99.90;;;;;;10521191;28;20028;-63
2023/03/24 03:04:15;;;;;;;5.57;1.80;;;12.60;99.90;;;;;;10522232;28;20039;-63
2023/03/24 03:09:18;;;;;;;4.28;1.75;;;12.70;99.90;;;;;;10522060;28;20020;-64
2023/03/24 03:14:36;;;;;;;3.03;1.98;;;12.70;99.90;;;;;;10514650;28;20061;-64
2023/03/24 03:19:46;;;;;;;3.38;1.92;;;12.70;99.90;;;;;;10510435;28;20054;-64
2023/03/24 03:24:51;;;;;;;2.13;1.70;;;12.70;99.90;;;;;;10520461;28;20016;-64
2023/03/24 03:29:59;;;;;;;3.15;1.50;;;12.70;99.90;;;;;;10524698;28;20106;-63
2023/03/24 03:35:08;;;;;;;2.83;1.85;;;12.70;99.90;;;;;;10519080;28;20446;-64
2023/03/24 03:40:16;;;;;;;3.17;1.85;;;12.80;99.90;;;;;;10522643;28;20028;-64
2023/03/24 03:45:17;;;;;;;3.42;2.00;;;12.70;99.90;;;;;;10518346;28;20031;-63
2023/03/24 03:50:17;;;;;;;2.97;1.92;;;12.70;99.90;;;;;;10519782;28;20046;-63
2023/03/24 03:55:18;;;;;;;4.57;1.55;;;12.60;99.90;;;;;;10513954;28;20009;-63
2023/03/24 04:00:21;;;;;;;2.45;1.65;;;12.60;99.90;;;;;;10519112;28;20384;-64
2023/03/24 04:05:33;;;;;;;3.55;1.65;;;12.60;99.90;;;;;;10514540;28;20036;-64
2023/03/24 04:11:07;;;;;;;2.90;1.42;;;12.60;99.90;;;;;;10520998;28;20532;-64
2023/03/24 04:16:21;;;;;;;3.88;1.65;;;12.60;99.90;;;;;;10512002;28;20021;-63
2023/03/24 04:21:41;;;;;;;2.33;1.30;;;12.60;99.90;;;;;;10519633;28;20026;-64
2023/03/24 04:26:59;;;;;;;3.75;1.65;;;12.60;99.90;;;;;;10517521;28;20492;-63
2023/03/24 04:32:13;;;;;;;1.70;1.40;;;12.50;99.90;;;;;;10508294;28;20036;-63
2023/03/24 04:37:18;;;;;;;3.38;1.33;;;12.50;99.90;;;;;;10519815;28;20024;-63
2023/03/24 04:42:24;;;;;;;1.98;1.13;;;12.50;99.90;;;;;;10521836;28;20642;-64
2023/03/24 04:47:30;;;;;;;1.67;1.17;;;12.40;99.90;;;;;;10520330;28;20020;-63
2023/03/24 04:52:31;;;;;;;2.83;1.08;;;12.50;99.90;;;;;;10516372;28;20036;-64
2023/03/24 04:57:32;;;;;;;2.38;1.13;;;12.50;99.90;;;;;;10514787;28;20188;-63
2023/03/24 05:02:32;;;;;;;3.05;1.20;;;12.60;99.90;;;;;;10520014;28;20483;-64
2023/03/24 05:07:33;;;;;;;2.28;1.10;;;12.40;99.90;;;;;;10516693;28;20026;-64
2023/03/24 05:12:33;;;;;;;2.17;0.95;;;12.40;99.90;;;;;;10518140;28;20035;-63
2023/03/24 05:17:34;;;;;;;2.38;1.17;;;12.40;99.90;;;;;;10515890;28;20081;-64
2023/03/24 05:22:35;;;;;;;4.30;1.35;;;12.40;99.90;;;;;;10519301;28;20016;-65
2023/03/24 05:27:35;;;;;;;2.25;1.10;;;12.40;99.90;;;;;;10510970;28;20472;-62
2023/03/24 05:32:36;;;;;;;2.13;1.10;;;11.90;99.90;;;;;;10512137;28;20455;-64
2023/03/24 05:37:37;;;;;;;3.40;1.08;;;12.30;99.90;;;;;;10515303;28;20028;-64
2023/03/24 05:42:37;;;;;;;3.40;1.05;;;12.30;99.90;;;;;;10520400;28;20032;-63
2023/03/24 05:47:38;;;;;;;1.85;1.10;;;12.10;99.90;;;;;;10520944;28;20054;-64
2023/03/24 05:52:40;;;;;;;3.78;1.00;;;12.30;99.90;;;;;;10524226;28;20484;-63
2023/03/24 05:57:42;;;;;;;3.05;0.93;;;12.30;99.90;;;;;;10522037;28;20012;-63
2023/03/24 06:02:44;;;;;;;2.05;1.20;;;12.40;99.90;;;;;;10520413;28;20066;-63
2023/03/24 06:07:44;;;;;;;3.97;1.10;;;12.20;99.90;;;;;;10523439;28;20047;-62
2023/03/24 06:12:45;;;;;;;4.38;1.20;;;12.20;99.90;;;;;;10521106;28;20115;-62
2023/03/24 06:17:46;;;;;;;5.13;1.38;;;12.20;99.90;;;;;;10523201;28;20020;-63
2023/03/24 06:22:48;;;;;;;4.15;1.58;;;12.20;99.90;;;;;;10523792;28;20476;-63
2023/03/24 06:27:49;;;;;;;4.50;1.38;;;12.20;99.90;;;;;;10518669;28;20024;-62
2023/03/24 06:32:50;;;;;;;3.65;1.13;;;12.20;99.90;;;;;;10520631;28;20024;-63
2023/03/24 06:37:50;;;;;;;1.88;1.05;;;12.20;99.90;;;;;;10524516;28;20112;-63
2023/03/24 06:42:51;;;;;;;2.63;1.15;;;12.20;99.90;;;;;;10516982;28;20032;-64
2023/03/24 06:47:54;;;;;;;2.63;0.98;;;12.20;99.90;;;;;;10515969;28;20036;-62
2023/03/24 06:52:55;;;;;;;5.65;1.63;;;12.20;99.90;;;;;;10514261;28;20036;-64
2023/03/24 06:57:56;;;;;;;4.68;1.35;;;12.20;99.90;;;;;;10517422;28;20032;-62
2023/03/24 07:02:56;;;;;;;3.55;1.27;;;12.20;99.90;;;;;;10504044;28;20114;-62
2023/03/24 07:07:57;;;;;;;7.03;1.10;;;12.20;99.90;;;;;;10518992;28;20031;-63
2023/03/24 07:12:58;;;;;;;3.60;0.95;;;12.20;99.90;;;;;;10517621;28;20031;-63
2023/03/24 07:17:59;;;;;;;3.20;1.27;;;12.20;99.90;;;;;;10519486;28;20041;-62
2023/03/24 07:23:00;;;;;;;4.25;1.23;;;12.20;99.90;;;;;;10516854;28;20512;-62
2023/03/24 07:28:01;;;;;;;7.13;1.17;;;12.20;99.90;;;;;;10517494;28;20091;-63
2023/03/24 07:33:06;;;;;;;4.50;1.35;;;12.20;99.90;;;;;;10513992;28;21994;-62
2023/03/24 07:38:07;;;;;;;4.53;1.10;;;12.20;99.90;;;;;;10515372;28;20106;-63
2023/03/24 07:43:08;;;;;;;6.53;1.33;;;12.20;99.90;;;;;;10516030;28;20458;-62
2023/03/24 07:48:08;;;;;;;5.13;1.27;;;12.30;99.90;;;;;;10516112;28;20269;-64
2023/03/24 07:53:09;;;;;;;7.28;1.13;;;12.30;99.90;;;;;;10514578;28;20031;-62
2023/03/24 07:58:10;;;;;;;6.68;1.80;;;12.30;99.90;;;;;;10515457;28;20622;-63
2023/03/24 08:03:12;;;;;;;5.03;1.52;;;12.30;99.90;;;;;;10508572;28;20063;-62
2023/03/24 08:08:13;;;;;;;4.88;1.20;;;12.30;99.90;;;;;;10513877;28;20024;-62
2023/03/24 08:13:13;;;;;;;9.05;1.63;;;12.40;99.90;;;;;;10514847;28;20677;-62
2023/03/24 08:18:15;;;;;;;6.03;1.33;;;12.40;99.90;;;;;;10515183;28;20496;-65
2023/03/24 08:23:16;;;;;;;4.32;1.30;;;12.40;99.90;;;;;;10509105;28;20115;-63
2023/03/24 08:28:17;;;;;;;7.63;1.52;;;12.50;99.90;;;;;;10513256;28;20280;-62
2023/03/24 08:33:18;;;;;;;7.32;1.23;;;12.50;99.90;;;;;;10504515;28;20320;-61
2023/03/24 08:38:22;;;;;;;5.65;1.27;;;12.60;99.90;;;;;;10510477;28;20488;-62
2023/03/24 08:43:23;;;;;;;8.63;1.70;;;12.60;99.90;;;;;;10512405;28;20036;-62
2023/03/24 08:48:25;;;;;;;5.30;1.27;;;12.70;99.90;;;;;;10509316;28;20059;-62
2023/03/24 08:53:25;;;;;;;6.95;1.48;;;12.70;99.90;;;;;;10510521;28;20029;-64
2023/03/24 08:58:26;;;;;;;3.80;1.42;;;12.80;99.90;;;;;;10510835;28;20032;-62
2023/03/24 09:03:27;;;;;;;7.07;1.42;;;12.80;99.90;;;;;;10507703;28;20028;-63
2023/03/24 09:08:27;;;;;;;11.02;1.92;;;12.80;99.90;;;;;;10507870;28;20024;-63
2023/03/24 09:13:28;;;;;;;7.30;1.90;;;12.90;99.90;;;;;;10513492;28;20415;-63
2023/03/24 09:18:30;;;;;;;6.78;1.45;;;12.80;99.90;;;;;;10514507;28;20035;-62
2023/03/24 09:23:31;;;;;;;4.47;1.20;;;12.80;99.90;;;;;;10516015;28;20226;-63
2023/03/24 09:28:32;;;;;;;5.85;1.85;;;12.90;99.90;;;;;;10512183;28;20028;-63
2023/03/24 09:33:33;;;;;;;8.60;1.38;;;12.90;99.90;;;;;;10520488;28;20040;-61
2023/03/24 09:38:34;;;;;;;6.78;1.33;;;12.90;99.90;;;;;;10517354;28;20480;-63
2023/03/24 09:43:49;;;;;;;9.23;1.63;;;12.90;99.90;;;;;;10517596;28;20034;-63
2023/03/24 09:48:56;;;;;;;6.05;1.27;;;12.90;99.90;;;;;;10519216;28;20039;-62
2023/03/24 09:53:59;;;;;;;8.02;1.50;;;12.90;99.90;;;;;;10512817;28;20047;-63
2023/03/24 09:59:08;;;;;;;9.02;1.40;;;12.90;99.90;;;;;;10521758;28;20515;-62
2023/03/24 10:04:21;;;;;;;8.15;1.92;;;12.90;99.90;;;;;;10522710;28;20028;-62
2023/03/24 10:09:32;;;;;;;6.40;1.30;;;12.90;99.90;;;;;;10522284;28;20455;-63
2023/03/24 10:14:55;;;;;;;6.47;1.70;;;12.90;99.90;;;;;;10515948;28;20066;-63
2023/03/24 10:20:30;;;;;;;8.77;1.52;;;12.90;99.90;;;;;;10514474;28;20109;-61
2023/03/24 10:25:50;;;;;;;7.00;1.30;;;12.90;99.90;;;;;;10520529;28;20012;-62
2023/03/24 10:30:55;;;;;;;7.75;1.40;;;13.00;99.90;;;;;;10515270;28;20028;-62
2023/03/24 10:36:07;;;;;;;7.47;1.17;;;13.10;99.90;;;;;;10514037;28;20492;-63
2023/03/24 10:41:23;;;;;;;4.88;1.33;;;13.10;99.90;;;;;;10516892;28;20036;-63
2023/03/24 10:46:27;;;;;;;6.18;1.30;;;13.20;99.90;;;;;;10512599;28;20094;-63
2023/03/24 10:51:33;;;;;;;6.32;1.00;;;13.20;99.90;;;;;;10516462;28;20077;-63
2023/03/24 10:56:45;;;;;;;8.70;1.30;;;13.30;99.90;;;;;;10516773;28;20031;-63
2023/03/24 11:01:46;;;;;;;7.00;1.23;;;13.30;99.90;;;;;;10511078;28;20032;-62
2023/03/24 11:07:04;;;;;;;5.28;1.10;;;13.40;99.90;;;;;;10514715;28;20035;-62
2023/03/24 11:12:24;;;;;;;9.45;1.45;;;13.40;99.90;;;;;;10513632;28;20028;-63
2023/03/24 11:17:26;;;;;;;6.03;1.63;;;13.40;99.90;;;;;;10520951;28;20327;-64
2023/03/24 11:22:26;;;;;;;3.05;1.13;;;13.40;99.90;;;;;;10514291;28;20494;-62
2023/03/24 11:27:27;;;;;;;7.75;1.30;;;13.50;99.90;;;;;;10514288;28;20024;-62
2023/03/24 11:32:28;;;;;;;5.72;1.13;;;13.40;99.90;;;;;;10515351;28;20080;-62
2023/03/24 11:37:32;;;;;;;5.22;1.27;;;13.40;99.90;;;;;;10513950;28;20084;-63
2023/03/24 11:42:33;;;;;;;7.10;1.42;;;13.50;99.90;;;;;;10515097;28;20036;-62
2023/03/24 11:47:37;;;;;;;2.97;1.30;;;13.50;99.90;;;;;;10517541;28;20032;-61
2023/03/24 11:52:43;;;;;;;6.28;1.50;;;13.60;99.90;;;;;;10511239;28;20069;-62
2023/03/24 11:57:49;;;;;;;4.97;2.30;;;13.60;99.90;;;;;;10514815;28;20031;-62
2023/03/24 12:03:38;;;;;;;3.63;1.77;;;13.70;99.90;;;;;;10513054;28;20032;-61
2023/03/24 12:08:54;;;;;;;3.85;1.52;;;13.60;99.90;;;;;;10510476;28;20605;-63
2023/03/24 12:14:03;;;;;;;3.60;1.33;;;13.70;99.90;;;;;;10515350;28;20028;-63
2023/03/24 12:19:30;;;;;;;3.92;1.30;;;13.80;99.90;;;;;;10518098;28;20377;-64
2023/03/24 12:24:56;;;;;;;5.85;1.20;;;13.80;99.90;;;;;;10515416;28;20532;-61
2023/03/24 12:29:58;;;;;;;4.55;1.30;;;13.90;99.90;;;;;;10507685;28;20031;-63
2023/03/24 12:35:08;;;;;;;8.68;1.48;;;13.90;99.90;;;;;;10511667;28;20403;-61
2023/03/24 12:40:20;;;;;;;7.00;1.20;;;13.90;99.90;;;;;;10513470;28;20033;-62
2023/03/24 12:45:42;;;;;;;4.43;1.23;;;14.00;99.90;;;;;;10511718;28;20034;-61
2023/03/24 12:51:07;;;;;;;2.97;1.00;;;14.00;99.90;;;;;;10512677;28;20067;-63
2023/03/24 12:56:13;;;;;;;2.92;1.00;;;14.00;99.90;;;;;;10510245;28;20025;-63
2023/03/24 13:01:42;;;;;;;6.07;1.50;;;14.10;99.90;;;;;;10510292;28;20023;-64
2023/03/24 13:06:55;;;;;;;;;;;13.30;99.90;;;;;;10510051;28;20036;-63
2023/03/24 13:12:17;;;;;;;4.68;1.05;;;14.10;99.90;;;;;;10512114;28;19977;-63
2023/03/24 13:17:40;;;;;;;2.85;1.00;;;14.10;99.90;;;;;;10512975;28;20020;-64
2023/03/24 13:22:41;;;;;;;6.75;1.33;;;14.10;99.90;;;;;;10507384;28;20028;-66
2023/03/24 13:27:45;;;;;;;5.38;1.00;;;14.10;99.90;;;;;;10512206;28;20928;-64
2023/03/24 13:32:53;;;;;;;8.88;1.50;;;14.00;99.90;;;;;;10509070;28;20025;-68
2023/03/24 13:38:19;;;;;;;10.32;1.58;;;14.20;99.90;;;;;;10503532;28;20110;-66
2023/03/24 13:43:27;;;;;;;9.88;1.60;;;14.40;98.70;;;;;;10507865;28;20197;-65
2023/03/24 13:48:40;;;;;;;7.68;1.63;;;14.40;98.70;;;;;;10508628;28;20024;-63
2023/03/24 13:53:54;;;;;;;11.38;1.48;;;14.30;98.70;;;;;;10510642;28;20480;-66
2023/03/24 13:58:58;;;;;;;4.85;1.42;;;14.10;98.60;;;;;;10506849;28;20064;-62
2023/03/24 14:04:24;;;;;;;12.23;1.55;;;14.10;98.70;;;;;;10513207;28;20103;-64
2023/03/24 14:09:30;;;;;;;6.82;1.20;;;14.10;98.00;;;;;;10511630;28;20032;-63
2023/03/24 14:14:34;;;;;;;9.25;1.50;;;14.10;98.80;;;;;;10507093;28;20342;-64
2023/03/24 14:19:42;;;;;;;4.15;1.00;;;14.20;98.90;;;;;;10517567;28;20012;-63
2023/03/24 14:24:45;;;;;;;8.00;1.30;;;14.20;99.00;;;;;;10518691;28;20044;-64
2023/03/24 14:29:49;;;;;;;7.40;1.30;;;14.20;99.00;;;;;;10514300;28;20024;-63
2023/03/24 14:34:54;;;;;;;6.07;1.40;;;14.20;99.10;;;;;;10516255;28;20040;-63
2023/03/24 14:39:57;;;;;;;5.38;1.20;;;14.20;99.10;;;;;;10509577;28;20159;-63
2023/03/24 14:45:03;;;;;;;6.68;1.23;;;14.30;99.10;;;;;;10509652;28;20059;-63
2023/03/24 14:50:21;;;;;;;6.15;1.13;;;14.30;99.00;;;;;;10517971;28;20479;-64
2023/03/24 14:55:22;;;;;;;6.57;1.35;;;14.30;98.80;;;;;;10510686;28;20587;-63
2023/03/24 15:00:45;;;;;;;4.43;1.02;;;14.30;99.00;;;;;;10512275;28;20436;-63
2023/03/24 15:05:46;;;;;;;4.32;1.42;;;14.30;99.00;;;;;;10517148;28;20046;-62
2023/03/24 15:10:48;;;;;;;7.47;1.30;;;14.30;99.10;;;;;;10516588;28;20036;-64
2023/03/24 15:15:49;;;;;;;5.68;1.30;;;14.30;99.00;;;;;;10508937;28;20028;-63
2023/03/24 15:20:51;;;;;;;6.05;1.23;;;14.40;98.90;;;;;;10518687;28;20496;-63
2023/03/24 15:25:52;;;;;;;7.47;1.20;;;14.60;98.70;;;;;;10523740;28;20024;-62
2023/03/24 15:30:55;;;;;;;4.35;0.93;;;14.60;98.70;;;;;;10519877;28;20079;-62
2023/03/24 15:35:57;;;;;;;3.97;1.45;;;14.50;98.80;;;;;;10517670;28;20032;-64
2023/03/24 15:41:08;;;;;;;4.85;0.90;;;14.50;98.80;;;;;;10521302;28;20024;-64
2023/03/24 15:46:29;;;;;;;6.07;1.00;;;14.40;98.80;;;;;;10517988;28;20062;-63
2023/03/24 15:51:55;;;;;;;5.22;0.95;;;14.30;98.90;;;;;;10518925;28;20077;-64
2023/03/24 15:57:01;;;;;;;6.78;1.33;;;14.40;99.10;;;;;;10515318;28;20549;-63
2023/03/24 16:02:16;;;;;;;3.65;0.90;;;14.30;99.20;;;;;;10516010;28;20035;-63
2023/03/24 16:07:29;;;;;;;4.10;0.75;;;14.30;99.00;;;;;;10514432;28;20032;-63
2023/03/24 16:12:35;;;;;;;5.03;0.75;;;14.30;99.00;;;;;;10517828;28;20051;-64
2023/03/24 16:17:36;;;;;;;5.85;1.00;;;14.30;99.10;;;;;;10519678;28;20016;-63
2023/03/24 16:22:36;;;;;;;3.50;1.00;;;14.20;99.20;;;;;;10517737;28;20402;-63
2023/03/24 16:27:37;;;;;;;3.28;0.85;;;14.20;99.20;;;;;;10517357;28;20028;-63
2023/03/24 16:32:38;;;;;;;3.03;0.80;;;14.30;99.30;;;;;;10517799;28;20030;-64
2023/03/24 16:37:38;;;;;;;7.03;1.23;;;14.20;99.20;;;;;;10519967;28;20027;-64
2023/03/24 16:42:40;;;;;;;3.60;0.80;;;14.10;99.20;;;;;;10517879;28;20118;-63
2023/03/24 16:47:41;;;;;;;5.43;0.90;;;14.10;99.20;;;;;;10519580;28;20030;-63
2023/03/24 16:52:41;;;;;;;3.05;0.90;;;14.10;99.20;;;;;;10507622;28;20070;-65
2023/03/24 16:57:42;;;;;;;4.40;0.95;;;14.10;99.30;;;;;;10512588;28;20131;-64
2023/03/24 17:02:46;;;;;;;6.85;0.90;;;14.10;99.30;;;;;;10505282;28;20096;-64
2023/03/24 17:07:47;;;;;;;3.70;0.90;;;14.10;99.30;;;;;;10512140;28;20046;-65
2023/03/24 17:12:49;;;;;;;4.45;1.05;;;14.10;99.40;;;;;;10518428;28;20233;-65
2023/03/24 17:17:50;;;;;;;2.08;1.00;;;14.00;99.30;;;;;;10517362;28;20603;-65
2023/03/24 17:22:53;;;;;;;4.63;1.33;;;13.90;99.30;;;;;;10513696;28;20059;-65
2023/03/24 17:28:15;;;;;;;4.97;0.98;;;14.00;99.30;;;;;;10515182;28;20111;-65
2023/03/24 17:33:20;;;;;;;3.30;0.88;;;14.10;99.30;;;;;;10516871;28;20403;-64
2023/03/24 17:38:21;;;;;;;3.67;0.90;;;13.90;99.20;;;;;;10513970;28;20080;-64
2023/03/24 17:43:22;;;;;;;6.38;1.42;;;13.90;99.20;;;;;;10524596;28;20066;-64
2023/03/24 17:48:23;;;;;;;3.03;0.93;;;13.90;99.20;;;;;;10517091;28;20115;-64
2023/03/24 17:53:25;;;;;;;7.38;1.20;;;13.80;99.20;;;;;;10513810;28;20024;-64
2023/03/24 17:58:26;;;;;;;5.45;1.13;;;13.70;99.30;;;;;;10523241;28;20025;-64
2023/03/24 18:03:28;;;;;;;5.80;0.75;;;13.70;99.30;;;;;;10518211;28;20024;-65
2023/03/24 18:08:29;;;;;;;7.88;1.30;;;13.70;99.30;;;;;;10514156;28;20024;-64
2023/03/24 18:13:50;;;;;;;4.95;1.38;;;13.60;99.20;;;;;;10521913;28;20090;-63
2023/03/24 18:19:11;;;;;;;4.07;0.95;;;13.60;99.30;;;;;;10522299;28;20036;-61
2023/03/24 18:24:12;;;;;;;6.38;1.48;;;13.50;99.40;;;;;;10522538;28;20281;-62
2023/03/24 18:29:12;;;;;;;4.95;1.23;;;13.50;99.30;;;;;;10518378;28;20081;-62
2023/03/24 18:34:13;;;;;;;2.55;1.17;;;13.50;99.40;;;;;;10517664;28;20032;-63
2023/03/24 18:39:14;;;;;;;4.95;1.25;;;13.50;99.40;;;;;;10522233;28;20519;-63
2023/03/24 18:44:15;;;;;;;6.72;1.40;;;13.50;99.40;;;;;;10516132;28;20037;-63
2023/03/24 18:49:15;;;;;;;5.10;1.00;;;13.50;99.50;;;;;;10517685;28;20267;-62
2023/03/24 18:54:16;;;;;;;8.38;1.45;;;13.40;99.50;;;;;;10519641;28;20020;-61
2023/03/24 18:59:17;;;;;;;3.05;0.80;;;13.40;99.50;;;;;;10514613;28;20020;-61
2023/03/24 19:04:17;;;;;;;4.35;1.00;;;13.40;99.60;;;;;;10500935;28;20085;-62
2023/03/24 19:09:20;;;;;;;5.72;1.17;;;13.40;99.60;;;;;;10511059;28;20024;-62
2023/03/24 19:14:23;;;;;;;2.90;0.80;;;13.40;99.70;;;;;;10513247;28;20042;-61
2023/03/24 19:19:26;;;;;;;3.25;1.00;;;13.40;99.70;;;;;;10513140;28;20019;-62
2023/03/24 19:24:27;;;;;;;2.15;0.90;;;13.30;99.70;;;;;;10511186;28;20038;-61
2023/03/24 19:29:28;;;;;;;3.45;1.02;;;13.30;99.80;;;;;;10510684;28;20038;-63
2023/03/24 19:34:29;;;;;;;6.35;1.35;;;13.20;99.80;;;;;;10516566;28;20036;-62
2023/03/24 19:39:30;;;;;;;2.83;1.00;;;13.20;99.80;;;;;;10520493;28;20165;-63
2023/03/24 19:44:31;;;;;;;5.30;1.17;;;13.20;99.90;;;;;;10515753;28;20553;-62
2023/03/24 19:49:31;;;;;;;6.82;1.48;;;13.20;99.90;;;;;;10517901;28;20373;-62
2023/03/24 19:54:32;;;;;;;6.45;0.93;;;13.10;99.90;;;;;;10521365;28;20483;-63
2023/03/24 19:59:33;;;;;;;3.90;1.20;;;13.10;99.90;;;;;;10525591;28;20483;-63
2023/03/24 20:04:34;;;;;;;3.83;1.35;;;13.10;99.90;;;;;;10519710;28;20031;-62
2023/03/24 20:09:35;;;;;;;5.45;1.00;;;13.10;99.90;;;;;;10519955;28;20051;-63
2023/03/24 20:14:35;;;;;;;4.50;1.65;;;13.00;99.90;;;;;;10518004;28;20032;-62
2023/03/24 20:19:36;;;;;;;2.33;0.77;;;13.00;99.90;;;;;;10525434;28;20020;-61
2023/03/24 20:24:37;;;;;;;4.53;1.10;;;13.00;99.90;;;;;;10515078;28;20027;-62
2023/03/24 20:29:38;;;;;;;2.30;1.05;;;13.00;99.90;;;;;;10523128;28;20024;-62
2023/03/24 20:34:39;;;;;;;2.40;0.77;;;13.00;99.90;;;;;;10517389;28;20020;-62
2023/03/24 20:39:42;;;;;;;2.33;0.82;;;12.90;99.90;;;;;;10510543;28;20030;-63
2023/03/24 20:44:43;;;;;;;5.00;0.90;;;13.00;99.90;;;;;;10509542;28;20048;-63
2023/03/24 20:49:44;;;;;;;4.47;1.23;;;12.90;99.90;;;;;;10511626;28;20106;-63
2023/03/24 20:54:44;;;;;;;4.68;1.10;;;12.90;99.90;;;;;;10516279;28;20426;-63
2023/03/24 20:59:47;;;;;;;4.28;1.13;;;12.90;99.90;;;;;;10517162;28;20043;-62
2023/03/24 21:04:47;;;;;;;6.40;1.00;;;13.10;99.90;;;;;;10516576;28;20017;-62
2023/03/24 21:09:48;;;;;;;2.70;1.27;;;12.80;99.90;;;;;;10521392;28;20039;-63
2023/03/24 21:14:48;;;;;;;3.78;1.17;;;12.80;99.90;;;;;;10524166;28;20089;-63
2023/03/24 21:19:49;;;;;;;4.38;1.10;;;12.80;99.90;;;;;;10528607;28;20115;-62
2023/03/24 21:24:50;;;;;;;5.15;1.20;;;12.70;99.90;;;;;;10528513;28;20435;-61
2023/03/24 21:29:50;;;;;;;4.13;0.95;;;12.70;99.90;;;;;;10521707;28;20051;-62
2023/03/24 21:34:51;;;;;;;2.83;0.90;;;12.70;99.90;;;;;;10527840;28;20024;-62
2023/03/24 21:39:51;;;;;;;4.43;1.10;;;12.70;99.90;;;;;;10522816;28;20031;-63
2023/03/24 21:44:52;;;;;;;3.50;1.00;;;12.70;99.90;;;;;;10528186;28;20150;-63
2023/03/24 21:49:57;;;;;;;2.78;0.95;;;12.60;99.90;;;;;;10529880;28;20020;-62
2023/03/24 21:54:59;;;;;;;2.83;0.98;;;12.60;99.90;;;;;;10521376;28;20509;-63
2023/03/24 22:00:00;;;;;;;4.43;1.00;;;12.60;99.90;;;;;;10530346;28;20502;-61
2023/03/24 22:05:02;;;;;;;5.35;1.10;;;12.60;99.90;;;;;;10529089;28;20027;-61
2023/03/24 22:10:04;;;;;;;2.13;0.80;;;12.60;99.90;;;;;;10523263;28;20887;-62
2023/03/24 22:15:08;;;;;;;4.75;0.90;;;12.50;99.90;;;;;;10524109;28;20016;-61
2023/03/24 22:20:11;;;;;;;4.10;1.30;;;12.50;99.90;;;;;;10523807;28;20193;-63
2023/03/24 22:25:14;;;;;;;5.18;1.52;;;12.50;99.90;;;;;;10531356;28;20028;-62
2023/03/24 22:30:15;;;;;;;3.40;0.90;;;12.50;99.90;;;;;;10522202;28;20048;-63
2023/03/24 22:35:15;;;;;;;4.10;0.98;;;12.50;99.90;;;;;;10522110;28;20050;-61
2023/03/24 22:40:16;;;;;;;1.88;1.10;;;12.50;99.90;;;;;;10521064;28;20090;-62
2023/03/24 22:45:17;;;;;;;3.33;0.95;;;12.50;99.90;;;;;;10527470;28;20081;-63
2023/03/24 22:50:17;;;;;;;2.40;0.85;;;12.50;99.90;;;;;;10521898;28;20023;-61
2023/03/24 22:55:18;;;;;;;4.90;1.00;;;12.50;99.90;;;;;;10525859;28;20024;-63
2023/03/24 23:00:19;;;;;;;1.63;0.73;;;12.50;99.90;;;;;;10520913;28;20032;-62
2023/03/24 23:05:20;;;;;;;3.47;1.00;;;12.40;99.90;;;;;;10518956;28;20421;-62
2023/03/24 23:10:21;;;;;;;2.88;1.00;;;12.40;99.90;;;;;;10527175;28;20039;-62
2023/03/24 23:15:22;;;;;;;4.18;1.20;;;12.40;99.90;;;;;;10522350;28;20492;-63
2023/03/24 23:20:23;;;;;;;3.38;0.88;;;12.40;99.90;;;;;;10523164;28;20028;-63
2023/03/24 23:25:24;;;;;;;3.92;0.90;;;12.40;99.90;;;;;;10527528;28;20024;-62
2023/03/24 23:30:25;;;;;;;3.33;0.80;;;12.40;99.90;;;;;;10519383;28;20107;-62
2023/03/24 23:35:31;;;;;;;3.03;1.13;;;12.40;99.90;;;;;;10517439;28;20455;-62
2023/03/24 23:40:34;;;;;;;5.55;1.05;;;12.40;99.90;;;;;;10522878;28;20055;-62
2023/03/24 23:45:35;;;;;;;3.58;1.05;;;12.40;99.90;;;;;;10515337;28;20024;-63
2023/03/24 23:50:35;;;;;;;3.17;0.85;;;12.30;99.90;;;;;;10519090;28;20059;-62
2023/03/24 23:55:36;;;;;;;2.35;0.80;;;12.30;99.90;;;;;;10519299;28;20012;-63
